Time;durP1;ratioP1;P1;durP2;ratioP2;P2;SDS_P1;SDS_P2;PMS_P1;PMS_P2;Temp;Humidity;BMP_temperature;BMP_pressure;BME280_temperature;BME280_humidity;BME280_pressure;Samples;Min_cycle;Max_cycle;Signal;HPM_P1;HPM_P2
2021/09/29 00:00:48;;;;;;;1.20;1.13;;;15.10;99.90;;;;;;5134236;28;20211;-69
2021/09/29 00:03:13;;;;;;;0.30;0.30;;;15.10;99.90;;;;;;5133809;28;20588;-67
2021/09/29 00:05:39;;;;;;;0.30;0.30;;;15.00;99.90;;;;;;5134157;27;20417;-68
2021/09/29 00:08:09;;;;;;;0.30;0.30;;;15.00;99.90;;;;;;5138259;27;20176;-68
2021/09/29 00:10:35;;;;;;;1.30;1.30;;;14.90;99.90;;;;;;5138068;27;20251;-68
2021/09/29 00:13:01;;;;;;;0.53;0.53;;;15.00;99.90;;;;;;5138184;27;20936;-68
2021/09/29 00:15:27;;;;;;;0.50;0.50;;;14.90;99.90;;;;;;5137782;27;20448;-67
2021/09/29 00:17:53;;;;;;;0.30;0.30;;;15.00;99.90;;;;;;5137733;27;20169;-68
2021/09/29 00:20:19;;;;;;;0.40;0.40;;;15.00;99.90;;;;;;5137981;27;20397;-67
2021/09/29 00:22:45;;;;;;;0.40;0.40;;;15.00;99.90;;;;;;5137873;27;20428;-68
2021/09/29 00:25:13;;;;;;;0.30;0.30;;;15.00;99.90;;;;;;5137605;27;20187;-69
2021/09/29 00:27:39;;;;;;;0.30;0.30;;;14.90;99.90;;;;;;5137854;27;20457;-66
2021/09/29 00:30:07;;;;;;;0.30;0.30;;;14.90;99.90;;;;;;5137558;27;20413;-68
2021/09/29 00:32:34;;;;;;;0.40;0.40;;;14.90;99.90;;;;;;5137625;27;20922;-68
2021/09/29 00:35:01;;;;;;;0.30;0.30;;;14.90;99.90;;;;;;5137333;27;20471;-68
2021/09/29 00:37:28;;;;;;;0.40;0.40;;;14.60;99.90;;;;;;5137521;27;20405;-68
2021/09/29 00:39:53;;;;;;;0.40;0.40;;;14.60;99.90;;;;;;5137521;27;20413;-67
2021/09/29 00:42:19;;;;;;;0.30;0.30;;;14.70;99.90;;;;;;5137370;27;20503;-67
2021/09/29 00:44:45;;;;;;;0.60;0.60;;;14.70;99.90;;;;;;5137194;27;20174;-68
2021/09/29 00:47:11;;;;;;;0.57;0.57;;;14.70;99.90;;;;;;5137156;27;20222;-68
2021/09/29 00:49:37;;;;;;;0.30;0.30;;;14.40;99.90;;;;;;5137252;27;20458;-68
2021/09/29 00:52:03;;;;;;;0.30;0.30;;;14.30;99.90;;;;;;5137443;27;20408;-69
2021/09/29 00:54:30;;;;;;;0.30;0.30;;;14.30;99.90;;;;;;5136891;27;20460;-67
2021/09/29 00:56:57;;;;;;;0.30;0.30;;;14.40;99.90;;;;;;5137240;27;20405;-67
2021/09/29 00:59:23;;;;;;;0.63;0.63;;;14.50;99.90;;;;;;5137240;27;20437;-68
2021/09/29 01:01:50;;;;;;;0.30;0.30;;;14.60;99.90;;;;;;5136967;27;20401;-67
2021/09/29 01:04:16;;;;;;;0.30;0.30;;;14.70;99.90;;;;;;5136773;27;20429;-68
2021/09/29 01:07:04;;;;;;;0.40;0.40;;;14.60;99.90;;;;;;5136993;27;20767;-68
2021/09/29 01:09:43;;;;;;;0.30;0.30;;;14.50;99.90;;;;;;5137027;27;20949;-68
2021/09/29 01:12:20;;;;;;;1.40;1.40;;;14.50;99.90;;;;;;5136894;27;20494;-67
2021/09/29 01:15:09;;;;;;;0.30;0.30;;;14.50;99.90;;;;;;5136698;27;20456;-69
2021/09/29 01:17:40;;;;;;;0.30;0.30;;;14.20;99.90;;;;;;5135811;27;20871;-68
2021/09/29 01:20:14;;;;;;;0.30;0.30;;;14.10;99.90;;;;;;5136894;27;20397;-68
2021/09/29 01:23:06;;;;;;;0.30;0.30;;;14.20;99.90;;;;;;5136781;27;20424;-67
2021/09/29 01:25:49;;;;;;;0.30;0.30;;;14.20;99.90;;;;;;5080020;27;20474;-67
2021/09/29 01:28:19;;;;;;;0.30;0.30;;;14.20;99.90;;;;;;5136661;27;20408;-69
2021/09/29 01:30:45;;;;;;;0.57;0.57;;;14.30;99.90;;;;;;5136619;27;20402;-67
2021/09/29 01:33:12;;;;;;;0.30;0.30;;;14.20;99.90;;;;;;5136143;27;20834;-67
2021/09/29 01:35:38;;;;;;;0.30;0.30;;;14.30;99.90;;;;;;5117848;27;20464;-68
2021/09/29 01:38:05;;;;;;;0.30;0.30;;;14.30;99.90;;;;;;5136374;27;20794;-67
2021/09/29 01:40:31;;;;;;;0.30;0.30;;;14.20;99.90;;;;;;5136368;27;20167;-69
2021/09/29 01:42:57;;;;;;;0.30;0.30;;;14.20;99.90;;;;;;5136198;27;20457;-67
2021/09/29 01:45:23;;;;;;;0.40;0.40;;;14.20;99.90;;;;;;5136145;27;20466;-67
2021/09/29 01:47:48;;;;;;;0.60;0.60;;;14.10;99.90;;;;;;5136008;27;20197;-69
2021/09/29 01:50:19;;;;;;;0.30;0.30;;;14.10;99.90;;;;;;5136463;27;20652;-68
2021/09/29 01:52:46;;;;;;;0.40;0.40;;;14.00;99.90;;;;;;5136300;27;20421;-68
2021/09/29 01:55:18;;;;;;;0.30;0.30;;;13.90;99.90;;;;;;5117418;27;20474;-68
2021/09/29 01:57:47;;;;;;;0.30;0.30;;;13.90;99.90;;;;;;5136084;27;20758;-68
2021/09/29 02:00:15;;;;;;;0.50;0.50;;;13.90;99.90;;;;;;5135838;27;20880;-68
2021/09/29 02:02:43;;;;;;;0.80;0.80;;;13.90;99.90;;;;;;5135941;27;20425;-67
2021/09/29 02:05:09;;;;;;;0.30;0.30;;;13.90;99.90;;;;;;5135512;27;20408;-67
2021/09/29 02:07:35;;;;;;;0.37;0.37;;;13.80;99.90;;;;;;5135673;27;20462;-67
2021/09/29 02:10:01;;;;;;;0.40;0.40;;;13.70;99.90;;;;;;5135846;27;20417;-67
2021/09/29 02:12:26;;;;;;;0.30;0.30;;;13.60;99.90;;;;;;5135689;27;20428;-67
2021/09/29 02:14:52;;;;;;;0.40;0.40;;;13.60;99.90;;;;;;5135313;27;20469;-68
2021/09/29 02:17:18;;;;;;;0.60;0.60;;;13.60;99.90;;;;;;5135712;27;20232;-68
2021/09/29 02:19:45;;;;;;;0.40;0.40;;;13.60;99.90;;;;;;5135489;27;20216;-68
2021/09/29 02:22:14;;;;;;;0.30;0.30;;;13.40;99.90;;;;;;5135422;27;20195;-67
2021/09/29 02:24:40;;;;;;;0.30;0.30;;;13.40;99.90;;;;;;5135189;27;20488;-67
2021/09/29 02:27:06;;;;;;;0.40;0.40;;;13.40;99.90;;;;;;5135430;27;20487;-69
2021/09/29 02:29:31;;;;;;;0.30;0.30;;;13.50;99.90;;;;;;5135252;27;20171;-68
2021/09/29 02:31:57;;;;;;;0.50;0.50;;;13.40;99.90;;;;;;5135190;27;20182;-68
2021/09/29 02:34:22;;;;;;;0.30;0.30;;;13.50;99.90;;;;;;5135032;27;20174;-67
2021/09/29 02:36:48;;;;;;;0.30;0.30;;;13.40;99.90;;;;;;5135212;27;20542;-68
2021/09/29 02:39:14;;;;;;;0.30;0.30;;;13.40;99.90;;;;;;5135349;27;20633;-69
2021/09/29 02:41:39;;;;;;;0.30;0.30;;;13.40;99.90;;;;;;5135210;27;20253;-66
2021/09/29 02:44:09;;;;;;;0.30;0.30;;;13.40;99.90;;;;;;5134745;27;20195;-66
2021/09/29 02:46:36;;;;;;;0.30;0.30;;;13.20;99.90;;;;;;5135090;27;20637;-69
2021/09/29 02:49:02;;;;;;;0.40;0.40;;;13.30;99.90;;;;;;5135010;27;20404;-67
2021/09/29 02:51:28;;;;;;;0.30;0.30;;;13.30;99.90;;;;;;5135134;27;20411;-67
2021/09/29 02:53:54;;;;;;;0.30;0.30;;;13.40;99.90;;;;;;5134730;27;20443;-68
2021/09/29 02:56:19;;;;;;;1.00;1.00;;;13.50;99.90;;;;;;5134742;27;20875;-69
2021/09/29 02:58:45;;;;;;;0.60;0.60;;;13.60;99.90;;;;;;5134807;27;20671;-69
2021/09/29 03:01:11;;;;;;;0.50;0.50;;;13.60;99.90;;;;;;5134809;27;20167;-67
2021/09/29 03:03:36;;;;;;;0.30;0.30;;;13.60;99.90;;;;;;5134687;27;20660;-68
2021/09/29 03:06:02;;;;;;;0.30;0.30;;;13.60;99.90;;;;;;5133838;27;20167;-68
2021/09/29 03:08:28;;;;;;;0.30;0.30;;;13.70;99.90;;;;;;5134638;27;20211;-68
2021/09/29 03:10:53;;;;;;;0.30;0.30;;;13.60;99.90;;;;;;5134795;27;20224;-68
2021/09/29 03:13:19;;;;;;;0.30;0.30;;;13.60;99.90;;;;;;5134446;27;20222;-68
2021/09/29 03:15:44;;;;;;;0.40;0.40;;;13.60;99.90;;;;;;5134493;27;20207;-67
2021/09/29 03:18:10;;;;;;;0.30;0.30;;;13.60;99.90;;;;;;5134607;27;20170;-68
2021/09/29 03:20:36;;;;;;;0.30;0.30;;;13.70;99.90;;;;;;5134668;28;20194;-68
2021/09/29 03:23:02;;;;;;;0.30;0.30;;;13.70;99.90;;;;;;5134577;28;20424;-66
2021/09/29 03:25:28;;;;;;;0.30;0.30;;;13.60;99.90;;;;;;5115937;28;20182;-68
2021/09/29 03:27:54;;;;;;;0.30;0.30;;;13.60;99.90;;;;;;5134465;28;20480;-68
2021/09/29 03:30:21;;;;;;;0.30;0.30;;;13.60;99.90;;;;;;5134416;28;20171;-68
2021/09/29 03:32:47;;;;;;;0.60;0.60;;;13.50;99.90;;;;;;5134421;28;20195;-68
2021/09/29 03:35:13;;;;;;;0.30;0.30;;;13.10;99.90;;;;;;5134162;28;20448;-68
2021/09/29 03:37:43;;;;;;;0.30;0.30;;;13.10;99.90;;;;;;5134534;28;20174;-68
2021/09/29 03:40:11;;;;;;;0.30;0.30;;;13.10;99.90;;;;;;5134246;27;20402;-67
2021/09/29 03:42:37;;;;;;;0.30;0.30;;;12.90;99.90;;;;;;5138035;27;20413;-67
2021/09/29 03:45:05;;;;;;;0.40;0.40;;;12.80;99.90;;;;;;5137331;27;20419;-66
2021/09/29 03:47:30;;;;;;;0.40;0.40;;;12.60;99.90;;;;;;5136503;27;20663;-68
2021/09/29 03:49:57;;;;;;;0.60;0.60;;;12.70;99.90;;;;;;5138042;27;20413;-68
2021/09/29 03:52:23;;;;;;;0.30;0.30;;;12.80;99.90;;;;;;5138821;27;20203;-68
2021/09/29 03:54:49;;;;;;;0.30;0.30;;;12.80;99.90;;;;;;5138096;27;20509;-68
2021/09/29 03:57:15;;;;;;;0.50;0.50;;;12.80;99.90;;;;;;5138579;27;20412;-68
2021/09/29 03:59:40;;;;;;;0.30;0.30;;;12.80;99.90;;;;;;5138309;27;20401;-67
2021/09/29 04:02:06;;;;;;;0.30;0.30;;;12.70;99.90;;;;;;5138203;27;20167;-66
2021/09/29 04:04:32;;;;;;;0.30;0.30;;;12.70;99.90;;;;;;5137910;27;20773;-68
2021/09/29 04:06:58;;;;;;;0.30;0.30;;;12.60;99.90;;;;;;5138208;27;20255;-66
2021/09/29 04:09:23;;;;;;;0.30;0.30;;;12.50;99.90;;;;;;5138002;27;20491;-67
2021/09/29 04:11:49;;;;;;;0.30;0.30;;;12.40;99.90;;;;;;5138015;27;20167;-67
2021/09/29 04:14:17;;;;;;;0.30;0.30;;;12.30;99.90;;;;;;5137787;27;20665;-68
2021/09/29 04:16:43;;;;;;;0.30;0.30;;;12.20;99.90;;;;;;5138169;27;20167;-69
2021/09/29 04:19:08;;;;;;;0.30;0.30;;;12.40;99.90;;;;;;5137689;27;20705;-68
2021/09/29 04:21:36;;;;;;;0.30;0.30;;;12.50;99.90;;;;;;5137228;27;20652;-66
2021/09/29 04:24:03;;;;;;;0.30;0.30;;;12.50;99.90;;;;;;5136942;27;20191;-67
2021/09/29 04:26:28;;;;;;;0.30;0.30;;;12.60;99.90;;;;;;5137660;27;20420;-67
2021/09/29 04:28:54;;;;;;;0.30;0.30;;;12.70;99.90;;;;;;5136515;27;20396;-67
2021/09/29 04:31:20;;;;;;;0.30;0.30;;;12.70;99.90;;;;;;5137632;27;20662;-69
2021/09/29 04:33:46;;;;;;;0.30;0.30;;;12.60;99.90;;;;;;5137431;27;20195;-68
2021/09/29 04:36:11;;;;;;;0.30;0.30;;;12.70;99.90;;;;;;5137291;27;20823;-67
2021/09/29 04:38:37;;;;;;;0.30;0.30;;;12.80;99.90;;;;;;5137467;27;20167;-68
2021/09/29 04:41:03;;;;;;;0.30;0.30;;;12.80;99.90;;;;;;5137433;27;20172;-67
2021/09/29 04:43:29;;;;;;;0.40;0.40;;;12.90;99.90;;;;;;5136954;27;20190;-69
2021/09/29 04:45:55;;;;;;;0.30;0.30;;;13.00;99.90;;;;;;5137413;27;20174;-67
2021/09/29 04:48:21;;;;;;;0.30;0.30;;;13.00;99.90;;;;;;5137473;27;20409;-67
2021/09/29 04:50:46;;;;;;;0.30;0.30;;;13.10;99.90;;;;;;5137289;27;20171;-67
2021/09/29 04:53:12;;;;;;;0.30;0.30;;;13.30;99.90;;;;;;5136958;27;20422;-67
2021/09/29 04:55:38;;;;;;;0.30;0.30;;;13.20;99.90;;;;;;5137022;27;20227;-67
2021/09/29 04:58:04;;;;;;;0.40;0.40;;;13.30;99.90;;;;;;5137067;27;20160;-69
2021/09/29 05:00:32;;;;;;;0.30;0.30;;;13.40;99.90;;;;;;5135980;27;20242;-68
2021/09/29 05:02:59;;;;;;;0.30;0.30;;;13.30;99.90;;;;;;5118719;27;20936;-66
2021/09/29 05:05:26;;;;;;;0.30;0.30;;;13.10;99.90;;;;;;5135982;27;20867;-69
2021/09/29 05:07:55;;;;;;;0.80;0.80;;;13.00;99.90;;;;;;5136176;27;20399;-68
2021/09/29 05:10:47;;;;;;;0.30;0.30;;;13.10;99.90;;;;;;5136236;27;20419;-69
2021/09/29 05:13:17;;;;;;;0.30;0.30;;;13.20;99.90;;;;;;5136640;27;20425;-68
2021/09/29 05:15:43;;;;;;;0.30;0.30;;;13.30;99.90;;;;;;5118116;27;20540;-68
2021/09/29 05:18:08;;;;;;;0.30;0.30;;;13.40;99.90;;;;;;5135951;27;20480;-69
2021/09/29 05:20:35;;;;;;;0.30;0.30;;;13.40;99.90;;;;;;5132765;27;20182;-67
2021/09/29 05:23:01;;;;;;;0.30;0.30;;;13.50;99.90;;;;;;5133620;27;20187;-69
2021/09/29 05:25:26;;;;;;;0.30;0.30;;;13.40;99.90;;;;;;5116775;27;20788;-66
2021/09/29 05:27:53;;;;;;;0.30;0.30;;;13.30;99.90;;;;;;5137129;27;20167;-67
2021/09/29 05:30:18;;;;;;;0.40;0.40;;;13.40;99.90;;;;;;5137157;27;20566;-69
2021/09/29 05:32:44;;;;;;;0.30;0.30;;;13.50;99.90;;;;;;5136344;27;20474;-68
2021/09/29 05:35:10;;;;;;;0.30;0.30;;;13.50;99.90;;;;;;5136330;27;20195;-69
2021/09/29 05:37:36;;;;;;;0.37;0.37;;;13.60;99.90;;;;;;5136672;27;20640;-67
2021/09/29 05:40:02;;;;;;;0.30;0.30;;;13.60;99.90;;;;;;5137204;27;20445;-68
2021/09/29 05:42:29;;;;;;;0.30;0.30;;;13.70;99.90;;;;;;5136387;27;20781;-68
2021/09/29 05:44:55;;;;;;;0.30;0.30;;;13.70;99.90;;;;;;5136035;27;20424;-68
2021/09/29 05:47:21;;;;;;;2.50;2.40;;;13.80;99.90;;;;;;5136194;27;20424;-66
2021/09/29 05:49:46;;;;;;;0.30;0.30;;;13.80;99.90;;;;;;5134041;27;20412;-68
2021/09/29 05:52:12;;;;;;;0.30;0.30;;;13.80;99.90;;;;;;5135713;27;20621;-69
2021/09/29 05:54:38;;;;;;;0.70;0.67;;;13.90;99.90;;;;;;5135397;27;20168;-68
2021/09/29 05:57:04;;;;;;;0.30;0.30;;;13.90;99.90;;;;;;5136065;27;20177;-69
2021/09/29 05:59:30;;;;;;;0.30;0.30;;;13.90;99.90;;;;;;5134280;27;20792;-67
2021/09/29 06:01:56;;;;;;;0.30;0.30;;;14.00;99.90;;;;;;5117201;27;20397;-69
2021/09/29 06:04:22;;;;;;;0.30;0.30;;;14.10;99.90;;;;;;5134133;27;20411;-68
2021/09/29 06:06:47;;;;;;;0.30;0.30;;;14.10;99.90;;;;;;5136082;27;20407;-68
2021/09/29 06:09:13;;;;;;;0.30;0.30;;;14.20;99.90;;;;;;5135762;27;20528;-65
2021/09/29 06:11:39;;;;;;;0.30;0.30;;;14.30;99.90;;;;;;5135855;27;20213;-68
2021/09/29 06:14:06;;;;;;;0.70;0.70;;;14.30;99.90;;;;;;5116859;27;20686;-69
2021/09/29 06:16:41;;;;;;;0.30;0.30;;;14.40;99.90;;;;;;5135713;27;20198;-67
2021/09/29 06:19:08;;;;;;;0.33;0.33;;;14.40;99.90;;;;;;5135576;27;20393;-67
2021/09/29 06:21:34;;;;;;;0.30;0.30;;;14.50;99.90;;;;;;5135655;27;21025;-68
2021/09/29 06:24:00;;;;;;;0.30;0.30;;;14.60;99.90;;;;;;5135190;27;20417;-68
2021/09/29 06:26:25;;;;;;;0.30;0.30;;;14.60;99.50;;;;;;5135331;27;20817;-69
2021/09/29 06:28:51;;;;;;;0.30;0.30;;;14.60;99.30;;;;;;5135487;27;20542;-69
2021/09/29 06:31:16;;;;;;;0.30;0.30;;;14.50;99.90;;;;;;5135195;27;20175;-69
2021/09/29 06:33:43;;;;;;;0.40;0.40;;;14.50;99.80;;;;;;5135008;27;20194;-67
2021/09/29 06:36:09;;;;;;;0.30;0.30;;;14.50;99.90;;;;;;5135232;27;20274;-67
2021/09/29 06:38:34;;;;;;;0.50;0.50;;;14.60;99.40;;;;;;5135297;27;20432;-68
2021/09/29 06:41:00;;;;;;;0.30;0.30;;;14.70;99.40;;;;;;5135260;27;20198;-67
2021/09/29 06:43:25;;;;;;;0.30;0.30;;;14.70;99.40;;;;;;5135043;27;20183;-69
2021/09/29 06:45:51;;;;;;;0.30;0.30;;;14.70;99.30;;;;;;5134857;27;20179;-68
2021/09/29 06:48:17;;;;;;;0.30;0.30;;;14.70;98.90;;;;;;5135124;27;20667;-67
2021/09/29 06:50:43;;;;;;;0.40;0.40;;;14.60;99.10;;;;;;5135046;27;20172;-67
2021/09/29 06:53:19;;;;;;;0.30;0.30;;;14.60;99.00;;;;;;5134709;27;20974;-67
2021/09/29 06:55:46;;;;;;;0.30;0.30;;;14.70;99.40;;;;;;5134919;27;20195;-67
2021/09/29 06:58:12;;;;;;;0.30;0.30;;;14.60;99.50;;;;;;5135037;27;20394;-68
2021/09/29 07:00:37;;;;;;;0.30;0.30;;;14.60;99.20;;;;;;5135106;27;20392;-68
2021/09/29 07:03:03;;;;;;;0.30;0.30;;;14.40;98.80;;;;;;5134581;27;20183;-68
2021/09/29 07:05:29;;;;;;;0.30;0.30;;;14.40;99.50;;;;;;5134694;27;20220;-67
2021/09/29 07:07:55;;;;;;;0.53;0.53;;;14.50;99.50;;;;;;5134713;27;20905;-68
2021/09/29 07:10:22;;;;;;;0.30;0.30;;;14.70;99.30;;;;;;5134811;27;20163;-69
2021/09/29 07:12:48;;;;;;;0.30;0.30;;;14.80;98.40;;;;;;5134550;27;20424;-67
2021/09/29 07:15:14;;;;;;;0.30;0.30;;;15.00;98.10;;;;;;5133834;27;20808;-68
2021/09/29 07:17:41;;;;;;;0.50;0.50;;;15.10;97.80;;;;;;5134312;27;20193;-67
2021/09/29 07:20:11;;;;;;;0.47;0.47;;;15.30;97.70;;;;;;5116003;28;20942;-66
2021/09/29 07:22:40;;;;;;;0.30;0.30;;;15.40;97.50;;;;;;5134610;28;20917;-69
2021/09/29 07:25:07;;;;;;;0.30;0.30;;;15.50;98.10;;;;;;5134268;28;20409;-70
2021/09/29 07:27:32;;;;;;;0.30;0.30;;;15.60;97.50;;;;;;5134870;28;20419;-65
2021/09/29 07:29:58;;;;;;;0.30;0.30;;;15.60;97.30;;;;;;5134615;28;20401;-69
2021/09/29 07:32:25;;;;;;;0.30;0.30;;;15.60;97.80;;;;;;5134459;28;20194;-68
2021/09/29 07:34:51;;;;;;;0.70;0.70;;;15.70;97.00;;;;;;5134303;28;20222;-67
2021/09/29 07:37:17;;;;;;;0.30;0.30;;;15.60;96.40;;;;;;5134509;28;20409;-68
2021/09/29 07:39:43;;;;;;;0.30;0.30;;;15.80;96.90;;;;;;5115885;28;20417;-68
2021/09/29 07:42:09;;;;;;;0.30;0.30;;;16.00;96.60;;;;;;5134257;28;20499;-68
2021/09/29 07:44:34;;;;;;;0.30;0.30;;;16.10;96.60;;;;;;5134126;28;20441;-67
2021/09/29 07:47:00;;;;;;;0.30;0.30;;;16.20;95.70;;;;;;5134337;28;20427;-69
2021/09/29 07:49:26;;;;;;;0.30;0.30;;;16.20;95.40;;;;;;5134254;28;20164;-67
2021/09/29 07:51:51;;;;;;;0.40;0.40;;;16.20;95.70;;;;;;5134357;28;20216;-70
2021/09/29 07:54:17;;;;;;;0.30;0.30;;;16.20;95.70;;;;;;5133983;28;20191;-69
2021/09/29 07:56:43;;;;;;;0.30;0.30;;;16.40;95.70;;;;;;5134233;28;20195;-70
2021/09/29 07:59:08;;;;;;;0.30;0.30;;;16.50;94.50;;;;;;5134281;28;20161;-66
2021/09/29 08:01:34;;;;;;;0.50;0.50;;;16.60;94.90;;;;;;5134181;28;20170;-67
2021/09/29 08:04:00;;;;;;;0.30;0.30;;;16.50;93.90;;;;;;5133844;28;20182;-68
2021/09/29 08:06:25;;;;;;;0.30;0.30;;;16.80;94.10;;;;;;5134246;28;20632;-68
2021/09/29 08:08:53;;;;;;;0.30;0.30;;;17.30;93.80;;;;;;5134029;28;20236;-68
2021/09/29 08:11:18;;;;;;;0.70;0.70;;;17.60;93.10;;;;;;5134414;28;20358;-67
2021/09/29 08:13:44;;;;;;;0.37;0.37;;;18.00;92.50;;;;;;5133750;28;20541;-70
2021/09/29 08:16:10;;;;;;;0.30;0.30;;;18.10;91.90;;;;;;5134016;28;20259;-68
2021/09/29 08:18:36;;;;;;;0.30;0.30;;;18.10;91.80;;;;;;5134151;28;20163;-67
2021/09/29 08:21:03;;;;;;;0.30;0.30;;;18.20;91.70;;;;;;5134018;28;20555;-68
2021/09/29 08:23:32;;;;;;;0.30;0.30;;;18.00;91.30;;;;;;5133759;28;20210;-67
2021/09/29 08:29:08;;;;;;;0.40;0.40;;;17.80;91.60;;;;;;5137534;27;20394;-68
2021/09/29 08:39:08;;;;;;;0.30;0.30;;;17.10;93.70;;;;;;5137542;27;20164;-69
2021/09/29 08:41:45;;;;;;;1.23;1.23;;;17.50;92.90;;;;;;5137508;27;20421;-69
2021/09/29 08:44:20;;;;;;;0.30;0.30;;;18.00;92.50;;;;;;5137181;27;20428;-66
2021/09/29 09:16:34;;;;;;;0.30;0.30;;;20.20;85.20;;;;;;5136774;27;20510;-69
2021/09/29 09:19:07;;;;;;;0.30;0.30;;;19.50;86.30;;;;;;5136771;27;20758;-68
2021/09/29 09:21:36;;;;;;;0.30;0.30;;;19.20;87.30;;;;;;5136346;27;20449;-69
2021/09/29 09:24:15;;;;;;;0.87;0.87;;;18.80;88.60;;;;;;5135291;27;20903;-68
2021/09/29 09:26:41;;;;;;;1.40;1.40;;;18.40;89.00;;;;;;5135462;27;20496;-68
2021/09/29 09:29:09;;;;;;;0.30;0.30;;;18.20;89.10;;;;;;5136614;27;20496;-68
2021/09/29 09:31:36;;;;;;;0.30;0.30;;;18.10;90.80;;;;;;5136512;27;20448;-68
2021/09/29 09:34:08;;;;;;;0.30;0.30;;;18.00;90.60;;;;;;5136195;27;20465;-67
2021/09/29 09:36:43;;;;;;;0.30;0.30;;;17.90;90.60;;;;;;5136108;27;20456;-67
2021/09/29 09:39:19;;;;;;;0.30;0.30;;;18.20;90.00;;;;;;5135444;27;20425;-69
2021/09/29 09:41:48;;;;;;;0.30;0.30;;;18.30;89.00;;;;;;5136558;27;20389;-67
2021/09/29 09:44:22;;;;;;;0.30;0.30;;;18.10;88.90;;;;;;5135914;27;20467;-70
2021/09/29 09:47:02;;;;;;;0.30;0.30;;;17.80;90.40;;;;;;5136179;27;20452;-68
2021/09/29 09:49:28;;;;;;;0.30;0.30;;;17.60;90.50;;;;;;5136108;27;20404;-67
2021/09/29 09:51:57;;;;;;;0.30;0.30;;;17.70;90.00;;;;;;5136142;27;20417;-69
2021/09/29 09:54:34;;;;;;;0.30;0.30;;;17.70;89.60;;;;;;5135979;27;20492;-69
2021/09/29 09:56:59;;;;;;;0.30;0.30;;;17.80;90.60;;;;;;5136095;27;20393;-70
2021/09/29 09:59:30;;;;;;;0.30;0.30;;;18.70;89.00;;;;;;5136091;27;20899;-68
2021/09/29 10:01:56;;;;;;;0.30;0.30;;;20.50;82.80;;;;;;5135851;27;20673;-69
2021/09/29 10:04:22;;;;;;;0.30;0.30;;;21.20;79.00;;;;;;5135638;27;20393;-68
2021/09/29 10:06:47;;;;;;;0.30;0.30;;;21.60;78.50;;;;;;5135862;27;20927;-69
2021/09/29 10:09:27;;;;;;;0.30;0.30;;;21.50;77.30;;;;;;5135883;27;20209;-68
2021/09/29 10:12:03;;;;;;;0.30;0.30;;;21.60;76.90;;;;;;5135906;27;20171;-70
2021/09/29 10:28:35;;;;;;;0.30;0.30;;;18.90;83.70;;;;;;5135574;27;20423;-70
2021/09/29 10:33:41;;;;;;;0.30;0.30;;;19.40;83.00;;;;;;5135030;27;20848;-67
2021/09/29 10:36:42;;;;;;;0.40;0.40;;;19.30;83.40;;;;;;5135442;27;20661;-67
2021/09/29 10:44:58;;;;;;;1.47;1.03;;;20.00;82.80;;;;;;5134905;27;20399;-69
2021/09/29 11:29:39;;;;;;;0.30;0.30;;;19.80;85.10;;;;;;5134905;28;20486;-68
2021/09/29 11:31:39;;;;;;;0.30;0.30;;;20.10;83.90;;;;;;5123273;28;20418;-68
2021/09/29 12:12:18;;;;;;;0.30;0.30;;;21.30;75.80;;;;;;5138145;27;20396;-69
2021/09/29 12:14:46;;;;;;;0.60;0.60;;;21.10;74.90;;;;;;5137808;27;20204;-68
2021/09/29 12:17:12;;;;;;;0.30;0.30;;;20.90;76.10;;;;;;5138344;27;20430;-68
2021/09/29 12:19:39;;;;;;;0.30;0.30;;;20.60;77.00;;;;;;5137937;27;20408;-69
2021/09/29 12:22:16;;;;;;;0.30;0.30;;;20.30;77.60;;;;;;5137981;27;20396;-68
2021/09/29 12:24:48;;;;;;;0.30;0.30;;;19.90;76.80;;;;;;5137697;27;20387;-70
2021/09/29 12:27:24;;;;;;;0.30;0.30;;;19.70;79.80;;;;;;5138485;27;20398;-69
2021/09/29 12:29:53;;;;;;;0.30;0.30;;;19.60;82.50;;;;;;5137726;27;20438;-70
2021/09/29 12:37:52;;;;;;;0.30;0.30;;;19.70;82.20;;;;;;5137767;27;20389;-68
2021/09/29 12:40:18;;;;;;;0.30;0.30;;;19.90;80.20;;;;;;5137639;27;20402;-69
2021/09/29 12:42:44;;;;;;;0.30;0.30;;;19.80;79.90;;;;;;5137357;27;20759;-70
2021/09/29 12:45:10;;;;;;;0.30;0.30;;;19.50;80.80;;;;;;5137271;27;20247;-69
2021/09/29 12:47:39;;;;;;;0.30;0.30;;;19.40;81.80;;;;;;5137164;27;20193;-69
2021/09/29 12:50:13;;;;;;;2.20;2.00;;;19.30;81.80;;;;;;5137438;27;20412;-68
2021/09/29 12:52:48;;;;;;;0.30;0.30;;;18.80;84.60;;;;;;5137379;27;20906;-70
2021/09/29 12:55:19;;;;;;;0.30;0.30;;;18.70;85.30;;;;;;5136998;27;20450;-68
2021/09/29 12:57:46;;;;;;;0.30;0.30;;;18.70;85.50;;;;;;5137464;27;20429;-68
2021/09/29 13:00:13;;;;;;;0.30;0.30;;;18.60;84.60;;;;;;5137229;27;20810;-68
2021/09/29 13:02:40;;;;;;;0.30;0.30;;;18.50;87.30;;;;;;5137186;27;20429;-70
2021/09/29 13:05:06;;;;;;;0.30;0.30;;;18.50;90.80;;;;;;5136835;27;20414;-70
2021/09/29 13:07:31;;;;;;;0.30;0.30;;;18.30;89.80;;;;;;5137337;27;20401;-70
2021/09/29 13:09:57;;;;;;;2.10;0.60;;;18.20;90.70;;;;;;5136969;27;20878;-68
2021/09/29 13:12:22;;;;;;;0.80;0.53;;;18.00;92.50;;;;;;5136863;27;20191;-69
2021/09/29 13:14:48;;;;;;;0.30;0.30;;;17.90;92.70;;;;;;5116828;27;20693;-70
2021/09/29 13:17:14;;;;;;;0.30;0.30;;;17.90;92.90;;;;;;5137407;27;20512;-68
2021/09/29 13:22:16;;;;;;;0.30;0.30;;;17.60;92.60;;;;;;5136672;27;20714;-69
2021/09/29 13:38:12;;;;;;;0.30;0.30;;;18.20;93.40;;;;;;5111479;27;20771;-69
2021/09/29 13:40:41;;;;;;;0.30;0.30;;;17.90;93.40;;;;;;5136416;27;20405;-68
2021/09/29 13:43:07;;;;;;;0.30;0.30;;;17.70;93.60;;;;;;5136104;27;20425;-69
2021/09/29 13:45:33;;;;;;;0.30;0.30;;;17.60;92.90;;;;;;5136373;27;20407;-66
2021/09/29 13:47:59;;;;;;;0.30;0.30;;;17.60;93.50;;;;;;5136258;27;20806;-70
2021/09/29 13:50:25;;;;;;;0.30;0.30;;;17.50;94.80;;;;;;5135057;27;20806;-69
2021/09/29 13:52:51;;;;;;;0.30;0.30;;;17.40;93.40;;;;;;5136608;27;20439;-70
2021/09/29 13:55:20;;;;;;;0.30;0.30;;;17.30;94.90;;;;;;5136057;27;20278;-68
2021/09/29 14:32:32;;;;;;;0.30;0.30;;;15.60;98.90;;;;;;5135279;27;20417;-69
2021/09/29 14:34:57;;;;;;;0.30;0.30;;;15.60;99.30;;;;;;5135137;27;20160;-69
2021/09/29 14:37:23;;;;;;;0.30;0.30;;;15.60;98.90;;;;;;5135737;27;20891;-69
2021/09/29 14:39:49;;;;;;;0.30;0.30;;;15.60;98.80;;;;;;5135695;27;20192;-67
2021/09/29 14:42:14;;;;;;;0.30;0.30;;;15.60;99.20;;;;;;5135199;27;20514;-68
2021/09/29 14:44:40;;;;;;;0.30;0.30;;;15.70;99.00;;;;;;5134003;27;20250;-68
2021/09/29 14:47:12;;;;;;;0.30;0.30;;;15.70;98.30;;;;;;5134895;27;20452;-68
2021/09/29 14:49:43;;;;;;;0.30;0.30;;;15.60;98.70;;;;;;5134027;27;20401;-67
2021/09/29 14:52:11;;;;;;;0.30;0.30;;;15.60;99.20;;;;;;5134994;27;20400;-67
2021/09/29 14:54:38;;;;;;;0.30;0.30;;;15.40;98.40;;;;;;5116244;27;20989;-67
2021/09/29 14:57:09;;;;;;;0.30;0.30;;;15.50;99.30;;;;;;5134911;27;20446;-68
2021/09/29 14:59:44;;;;;;;0.30;0.30;;;15.60;98.90;;;;;;5135217;27;20436;-70
2021/09/29 15:02:10;;;;;;;0.30;0.30;;;15.60;99.10;;;;;;5134987;27;20823;-69
2021/09/29 15:04:36;;;;;;;0.40;0.40;;;15.70;98.90;;;;;;5134810;27;20497;-69
2021/09/29 15:07:01;;;;;;;0.30;0.30;;;15.70;98.90;;;;;;5134889;27;20255;-69
2021/09/29 15:09:27;;;;;;;0.30;0.30;;;15.80;98.70;;;;;;5116392;27;20511;-70
2021/09/29 15:11:53;;;;;;;0.30;0.30;;;15.90;98.30;;;;;;5135114;27;20173;-70
2021/09/29 15:15:12;;;;;;;0.30;0.30;;;15.90;98.90;;;;;;5134389;27;20239;-70
2021/09/29 15:17:11;;;;;;;0.30;0.30;;;15.70;98.30;;;;;;5126094;27;20183;-68
2021/09/29 15:20:03;;;;;;;0.30;0.30;;;15.40;97.30;;;;;;5134784;27;20852;-68
2021/09/29 15:25:06;;;;;;;0.30;0.30;;;14.70;99.20;;;;;;5134548;27;21000;-69
2021/09/29 15:46:25;;;;;;;0.30;0.30;;;14.10;99.90;;;;;;5138532;27;20434;-68
2021/09/29 15:49:07;;;;;;;0.30;0.30;;;13.80;99.70;;;;;;5138805;27;20405;-70
2021/09/29 16:31:29;;;;;;;0.30;0.30;;;12.90;99.90;;;;;;5137988;27;20905;-69
2021/09/29 16:36:24;;;;;;;0.30;0.30;;;12.50;99.90;;;;;;5137722;27;20451;-68
2021/09/29 16:38:51;;;;;;;0.30;0.30;;;12.20;99.90;;;;;;5137827;27;20397;-69
2021/09/29 16:41:18;;;;;;;0.30;0.30;;;12.20;99.90;;;;;;5137385;27;20401;-68
2021/09/29 16:43:45;;;;;;;0.40;0.40;;;12.30;99.90;;;;;;5137176;27;20945;-69
2021/09/29 16:46:14;;;;;;;0.30;0.30;;;12.40;99.90;;;;;;5137279;27;20930;-70
2021/09/29 16:48:40;;;;;;;0.30;0.30;;;12.50;99.90;;;;;;5137173;27;20485;-69
2021/09/29 16:53:37;;;;;;;0.30;0.30;;;12.30;99.90;;;;;;5136937;27;20440;-70
2021/09/29 16:56:03;;;;;;;0.30;0.30;;;12.30;99.90;;;;;;5137108;27;20272;-68
2021/09/29 16:58:40;;;;;;;0.30;0.30;;;12.40;99.90;;;;;;5137217;27;20526;-69
2021/09/29 17:01:09;;;;;;;0.30;0.30;;;12.40;99.90;;;;;;5136427;27;20163;-69
2021/09/29 17:03:37;;;;;;;0.32;0.32;;;12.30;99.90;;;;;;5136846;27;20594;-70
2021/09/29 17:06:03;;;;;;;0.30;0.30;;;12.30;99.90;;;;;;5136104;27;20191;-69
2021/09/29 17:08:30;;;;;;;0.30;0.30;;;12.00;99.90;;;;;;5137176;27;20171;-68
2021/09/29 17:10:56;;;;;;;0.30;0.30;;;11.80;99.90;;;;;;5118547;27;20664;-69
2021/09/29 17:13:23;;;;;;;0.40;0.40;;;11.80;99.90;;;;;;5135758;27;20198;-69
2021/09/29 17:15:51;;;;;;;0.30;0.30;;;11.90;99.90;;;;;;5136954;27;20532;-68